sensor_id;sensor_type;location;lat;lon;timestamp;temperature;humidity
16321;DHT22;8269;50.990;4.494;2022-09-12T00:01:08;14.10;99.90
16321;DHT22;8269;50.990;4.494;2022-09-12T00:03:35;14.10;99.90
16321;DHT22;8269;50.990;4.494;2022-09-12T00:06:00;14.10;99.90
16321;DHT22;8269;50.990;4.494;2022-09-12T00:08:31;14.10;99.90
16321;DHT22;8269;50.990;4.494;2022-09-12T00:10:56;14.10;99.90
16321;DHT22;8269;50.990;4.494;2022-09-12T00:13:22;14.10;99.90
16321;DHT22;8269;50.990;4.494;2022-09-12T00:15:47;14.10;99.90
16321;DHT22;8269;50.990;4.494;2022-09-12T00:18:15;14.10;99.90
16321;DHT22;8269;50.990;4.494;2022-09-12T00:20:45;14.10;99.90
16321;DHT22;8269;50.990;4.494;2022-09-12T00:23:12;14.00;99.90
16321;DHT22;8269;50.990;4.494;2022-09-12T00:25:42;14.00;99.90
16321;DHT22;8269;50.990;4.494;2022-09-12T00:28:08;13.90;99.90
16321;DHT22;8269;50.990;4.494;2022-09-12T00:30:33;13.90;99.90
16321;DHT22;8269;50.990;4.494;2022-09-12T00:32:59;13.80;99.90
16321;DHT22;8269;50.990;4.494;2022-09-12T00:35:24;13.80;99.90
16321;DHT22;8269;50.990;4.494;2022-09-12T00:37:50;13.80;99.90
16321;DHT22;8269;50.990;4.494;2022-09-12T00:40:16;13.80;99.90
16321;DHT22;8269;50.990;4.494;2022-09-12T00:42:41;13.80;99.90
16321;DHT22;8269;50.990;4.494;2022-09-12T00:45:20;13.80;99.90
16321;DHT22;8269;50.990;4.494;2022-09-12T00:47:47;13.80;99.90
16321;DHT22;8269;50.990;4.494;2022-09-12T00:50:14;13.90;99.90
16321;DHT22;8269;50.990;4.494;2022-09-12T00:52:46;13.90;99.90
16321;DHT22;8269;50.990;4.494;2022-09-12T00:55:24;13.90;99.90
16321;DHT22;8269;50.990;4.494;2022-09-12T00:57:59;13.90;99.90
16321;DHT22;8269;50.990;4.494;2022-09-12T01:00:26;13.70;99.90
16321;DHT22;8269;50.990;4.494;2022-09-12T01:02:57;13.70;99.90
16321;DHT22;8269;50.990;4.494;2022-09-12T01:05:26;13.60;99.90
16321;DHT22;8269;50.990;4.494;2022-09-12T01:07:53;13.60;99.90
16321;DHT22;8269;50.990;4.494;2022-09-12T01:10:20;13.60;99.90
16321;DHT22;8269;50.990;4.494;2022-09-12T01:12:47;13.60;99.90
16321;DHT22;8269;50.990;4.494;2022-09-12T01:15:12;13.60;99.90
16321;DHT22;8269;50.990;4.494;2022-09-12T01:17:54;13.60;99.90
16321;DHT22;8269;50.990;4.494;2022-09-12T01:20:34;13.60;99.90
16321;DHT22;8269;50.990;4.494;2022-09-12T01:29:18;13.50;99.90
16321;DHT22;8269;50.990;4.494;2022-09-12T01:40:21;13.40;99.90
16321;DHT22;8269;50.990;4.494;2022-09-12T01:43:08;13.40;99.90
16321;DHT22;8269;50.990;4.494;2022-09-12T01:45:44;13.40;99.90
16321;DHT22;8269;50.990;4.494;2022-09-12T01:48:33;13.40;99.90
16321;DHT22;8269;50.990;4.494;2022-09-12T01:51:32;13.40;99.90
16321;DHT22;8269;50.990;4.494;2022-09-12T01:54:12;13.50;99.90
16321;DHT22;8269;50.990;4.494;2022-09-12T01:56:41;13.50;99.90
16321;DHT22;8269;50.990;4.494;2022-09-12T01:59:08;13.50;99.90
16321;DHT22;8269;50.990;4.494;2022-09-12T02:01:40;13.50;99.90
16321;DHT22;8269;50.990;4.494;2022-09-12T02:04:13;13.50;99.90
16321;DHT22;8269;50.990;4.494;2022-09-12T02:06:43;13.50;99.90
16321;DHT22;8269;50.990;4.494;2022-09-12T02:09:21;13.60;99.90
16321;DHT22;8269;50.990;4.494;2022-09-12T02:11:49;13.50;99.90
16321;DHT22;8269;50.990;4.494;2022-09-12T02:14:26;13.50;99.90
16321;DHT22;8269;50.990;4.494;2022-09-12T02:17:09;13.50;99.90
16321;DHT22;8269;50.990;4.494;2022-09-12T02:20:25;13.40;99.90
16321;DHT22;8269;50.990;4.494;2022-09-12T02:22:26;13.40;99.90
16321;DHT22;8269;50.990;4.494;2022-09-12T02:24:56;13.40;99.90
16321;DHT22;8269;50.990;4.494;2022-09-12T02:29:57;13.30;99.90
16321;DHT22;8269;50.990;4.494;2022-09-12T02:35:24;13.30;99.90
16321;DHT22;8269;50.990;4.494;2022-09-12T02:37:59;13.20;99.90
16321;DHT22;8269;50.990;4.494;2022-09-12T02:40:27;13.20;99.90
16321;DHT22;8269;50.990;4.494;2022-09-12T02:42:53;13.30;99.90
16321;DHT22;8269;50.990;4.494;2022-09-12T02:45:19;13.20;99.90
16321;DHT22;8269;50.990;4.494;2022-09-12T02:47:54;13.30;99.90
16321;DHT22;8269;50.990;4.494;2022-09-12T02:50:21;13.30;99.90
16321;DHT22;8269;50.990;4.494;2022-09-12T02:52:47;13.30;99.90
16321;DHT22;8269;50.990;4.494;2022-09-12T02:55:13;13.30;99.90
16321;DHT22;8269;50.990;4.494;2022-09-12T02:57:40;13.30;99.90
16321;DHT22;8269;50.990;4.494;2022-09-12T03:00:06;13.20;99.90
16321;DHT22;8269;50.990;4.494;2022-09-12T03:02:59;13.20;99.90
16321;DHT22;8269;50.990;4.494;2022-09-12T03:05:30;13.20;99.90
16321;DHT22;8269;50.990;4.494;2022-09-12T03:10:35;13.20;99.90
16321;DHT22;8269;50.990;4.494;2022-09-12T03:13:13;13.20;99.90
16321;DHT22;8269;50.990;4.494;2022-09-12T03:16:02;13.20;99.90
16321;DHT22;8269;50.990;4.494;2022-09-12T03:24:28;13.20;99.90
16321;DHT22;8269;50.990;4.494;2022-09-12T03:27:14;13.10;99.90
16321;DHT22;8269;50.990;4.494;2022-09-12T03:29:41;13.10;99.90
16321;DHT22;8269;50.990;4.494;2022-09-12T03:32:09;13.10;99.90
16321;DHT22;8269;50.990;4.494;2022-09-12T03:34:34;13.10;99.90
16321;DHT22;8269;50.990;4.494;2022-09-12T03:37:00;13.10;99.90
16321;DHT22;8269;50.990;4.494;2022-09-12T03:39:26;13.20;99.90
16321;DHT22;8269;50.990;4.494;2022-09-12T03:41:53;13.10;99.90
16321;DHT22;8269;50.990;4.494;2022-09-12T03:44:19;13.10;99.90
16321;DHT22;8269;50.990;4.494;2022-09-12T03:46:45;13.10;99.90
16321;DHT22;8269;50.990;4.494;2022-09-12T03:49:11;13.00;99.90
16321;DHT22;8269;50.990;4.494;2022-09-12T03:51:38;13.00;99.90
16321;DHT22;8269;50.990;4.494;2022-09-12T03:54:04;13.00;99.90
16321;DHT22;8269;50.990;4.494;2022-09-12T03:56:30;13.00;99.90
16321;DHT22;8269;50.990;4.494;2022-09-12T03:58:55;13.10;99.90
16321;DHT22;8269;50.990;4.494;2022-09-12T04:01:22;13.10;99.90
16321;DHT22;8269;50.990;4.494;2022-09-12T04:03:50;13.10;99.90
16321;DHT22;8269;50.990;4.494;2022-09-12T04:06:18;13.10;99.90
16321;DHT22;8269;50.990;4.494;2022-09-12T04:08:48;13.10;99.90
16321;DHT22;8269;50.990;4.494;2022-09-12T04:11:15;13.00;99.90
16321;DHT22;8269;50.990;4.494;2022-09-12T04:13:43;13.00;99.90
16321;DHT22;8269;50.990;4.494;2022-09-12T04:16:10;12.90;99.90
16321;DHT22;8269;50.990;4.494;2022-09-12T04:18:36;12.90;99.90
16321;DHT22;8269;50.990;4.494;2022-09-12T04:21:17;12.90;99.90
16321;DHT22;8269;50.990;4.494;2022-09-12T04:23:43;12.90;99.90
16321;DHT22;8269;50.990;4.494;2022-09-12T04:26:10;12.80;99.90
16321;DHT22;8269;50.990;4.494;2022-09-12T04:28:37;12.80;99.90
16321;DHT22;8269;50.990;4.494;2022-09-12T04:31:08;12.90;99.90
16321;DHT22;8269;50.990;4.494;2022-09-12T04:33:35;12.90;99.90
16321;DHT22;8269;50.990;4.494;2022-09-12T04:36:12;12.90;99.90
16321;DHT22;8269;50.990;4.494;2022-09-12T04:38:42;12.90;99.90
16321;DHT22;8269;50.990;4.494;2022-09-12T04:41:35;12.80;99.90
16321;DHT22;8269;50.990;4.494;2022-09-12T04:44:05;12.70;99.90
16321;DHT22;8269;50.990;4.494;2022-09-12T04:46:39;12.70;99.90
16321;DHT22;8269;50.990;4.494;2022-09-12T04:49:05;12.60;99.90
16321;DHT22;8269;50.990;4.494;2022-09-12T04:51:33;12.50;99.90
16321;DHT22;8269;50.990;4.494;2022-09-12T04:54:02;12.60;99.90
16321;DHT22;8269;50.990;4.494;2022-09-12T04:56:28;12.70;99.90
16321;DHT22;8269;50.990;4.494;2022-09-12T04:58:58;12.70;99.90
16321;DHT22;8269;50.990;4.494;2022-09-12T05:01:25;12.70;99.90
16321;DHT22;8269;50.990;4.494;2022-09-12T05:03:53;12.70;99.90
16321;DHT22;8269;50.990;4.494;2022-09-12T05:06:30;12.80;99.90
16321;DHT22;8269;50.990;4.494;2022-09-12T05:08:57;12.60;99.90
16321;DHT22;8269;50.990;4.494;2022-09-12T05:11:34;12.60;99.90
16321;DHT22;8269;50.990;4.494;2022-09-12T05:14:00;12.50;99.90
16321;DHT22;8269;50.990;4.494;2022-09-12T05:16:27;12.40;99.90
16321;DHT22;8269;50.990;4.494;2022-09-12T05:18:54;12.30;99.90
16321;DHT22;8269;50.990;4.494;2022-09-12T05:21:22;12.30;99.90
16321;DHT22;8269;50.990;4.494;2022-09-12T05:23:51;12.30;99.90
16321;DHT22;8269;50.990;4.494;2022-09-12T05:26:17;12.30;99.90
16321;DHT22;8269;50.990;4.494;2022-09-12T05:28:45;12.40;99.90
16321;DHT22;8269;50.990;4.494;2022-09-12T05:31:13;12.40;99.90
16321;DHT22;8269;50.990;4.494;2022-09-12T05:33:41;12.40;99.90
16321;DHT22;8269;50.990;4.494;2022-09-12T05:36:11;12.40;99.90
16321;DHT22;8269;50.990;4.494;2022-09-12T05:38:37;12.40;99.90
16321;DHT22;8269;50.990;4.494;2022-09-12T05:43:34;12.50;99.90
16321;DHT22;8269;50.990;4.494;2022-09-12T05:46:04;12.50;99.90
16321;DHT22;8269;50.990;4.494;2022-09-12T05:48:33;12.60;99.90
16321;DHT22;8269;50.990;4.494;2022-09-12T05:51:16;12.60;99.90
16321;DHT22;8269;50.990;4.494;2022-09-12T05:53:47;12.60;99.90
16321;DHT22;8269;50.990;4.494;2022-09-12T05:56:15;12.70;99.90
16321;DHT22;8269;50.990;4.494;2022-09-12T05:58:43;12.70;99.90
16321;DHT22;8269;50.990;4.494;2022-09-12T06:01:11;12.70;99.90
16321;DHT22;8269;50.990;4.494;2022-09-12T06:03:45;12.70;99.90
16321;DHT22;8269;50.990;4.494;2022-09-12T06:06:12;12.80;99.90
16321;DHT22;8269;50.990;4.494;2022-09-12T06:08:39;12.80;99.90
16321;DHT22;8269;50.990;4.494;2022-09-12T06:11:06;12.80;99.90
16321;DHT22;8269;50.990;4.494;2022-09-12T06:13:35;12.90;99.90
16321;DHT22;8269;50.990;4.494;2022-09-12T06:16:13;12.90;99.90
16321;DHT22;8269;50.990;4.494;2022-09-12T06:18:40;13.00;99.90
16321;DHT22;8269;50.990;4.494;2022-09-12T06:21:08;13.10;99.90
16321;DHT22;8269;50.990;4.494;2022-09-12T06:23:35;13.30;99.90
16321;DHT22;8269;50.990;4.494;2022-09-12T06:26:01;13.80;99.90
16321;DHT22;8269;50.990;4.494;2022-09-12T06:28:27;14.40;99.90
16321;DHT22;8269;50.990;4.494;2022-09-12T06:30:53;15.00;99.90
16321;DHT22;8269;50.990;4.494;2022-09-12T06:33:19;15.40;99.90
16321;DHT22;8269;50.990;4.494;2022-09-12T06:35:45;15.80;99.90
16321;DHT22;8269;50.990;4.494;2022-09-12T06:38:10;16.30;99.90
16321;DHT22;8269;50.990;4.494;2022-09-12T06:40:43;16.90;99.90
16321;DHT22;8269;50.990;4.494;2022-09-12T06:43:11;17.20;99.90
16321;DHT22;8269;50.990;4.494;2022-09-12T06:45:38;17.60;99.90
16321;DHT22;8269;50.990;4.494;2022-09-12T06:48:03;17.70;99.90
16321;DHT22;8269;50.990;4.494;2022-09-12T06:50:30;17.50;99.90
16321;DHT22;8269;50.990;4.494;2022-09-12T06:52:55;17.20;99.90
16321;DHT22;8269;50.990;4.494;2022-09-12T06:55:21;17.10;99.90
16321;DHT22;8269;50.990;4.494;2022-09-12T06:57:49;17.30;99.90
16321;DHT22;8269;50.990;4.494;2022-09-12T07:00:14;17.70;99.90
16321;DHT22;8269;50.990;4.494;2022-09-12T07:02:40;18.00;99.90
16321;DHT22;8269;50.990;4.494;2022-09-12T07:05:06;18.20;99.90
16321;DHT22;8269;50.990;4.494;2022-09-12T07:07:33;18.50;99.90
16321;DHT22;8269;50.990;4.494;2022-09-12T07:10:00;18.60;99.90
16321;DHT22;8269;50.990;4.494;2022-09-12T07:12:27;18.90;99.90
16321;DHT22;8269;50.990;4.494;2022-09-12T07:14:53;19.00;99.90
16321;DHT22;8269;50.990;4.494;2022-09-12T07:17:19;18.80;99.90
16321;DHT22;8269;50.990;4.494;2022-09-12T07:19:44;19.00;99.90
16321;DHT22;8269;50.990;4.494;2022-09-12T07:22:10;19.30;99.90
16321;DHT22;8269;50.990;4.494;2022-09-12T07:24:36;19.60;99.90
16321;DHT22;8269;50.990;4.494;2022-09-12T07:27:01;20.00;99.90
16321;DHT22;8269;50.990;4.494;2022-09-12T07:29:27;20.30;99.90
16321;DHT22;8269;50.990;4.494;2022-09-12T07:31:56;20.40;99.00
16321;DHT22;8269;50.990;4.494;2022-09-12T07:34:22;20.40;98.10
16321;DHT22;8269;50.990;4.494;2022-09-12T07:36:48;20.30;98.40
16321;DHT22;8269;50.990;4.494;2022-09-12T07:39:14;20.30;99.00
16321;DHT22;8269;50.990;4.494;2022-09-12T07:41:40;20.40;98.40
16321;DHT22;8269;50.990;4.494;2022-09-12T07:44:06;20.60;99.00
16321;DHT22;8269;50.990;4.494;2022-09-12T07:46:32;20.90;98.10
16321;DHT22;8269;50.990;4.494;2022-09-12T07:48:59;21.00;97.60
16321;DHT22;8269;50.990;4.494;2022-09-12T07:51:27;21.40;96.90
16321;DHT22;8269;50.990;4.494;2022-09-12T07:53:53;21.70;95.90
16321;DHT22;8269;50.990;4.494;2022-09-12T07:56:20;21.50;95.20
16321;DHT22;8269;50.990;4.494;2022-09-12T07:58:47;21.40;95.00
16321;DHT22;8269;50.990;4.494;2022-09-12T08:01:16;21.20;95.30
16321;DHT22;8269;50.990;4.494;2022-09-12T08:03:44;21.40;95.90
16321;DHT22;8269;50.990;4.494;2022-09-12T08:06:12;21.70;94.80
16321;DHT22;8269;50.990;4.494;2022-09-12T08:08:38;22.00;94.40
16321;DHT22;8269;50.990;4.494;2022-09-12T08:11:07;21.90;93.90
16321;DHT22;8269;50.990;4.494;2022-09-12T08:13:34;21.70;93.90
16321;DHT22;8269;50.990;4.494;2022-09-12T08:16:05;21.80;94.40
16321;DHT22;8269;50.990;4.494;2022-09-12T08:18:34;21.80;94.10
16321;DHT22;8269;50.990;4.494;2022-09-12T08:21:15;22.00;93.40
16321;DHT22;8269;50.990;4.494;2022-09-12T08:23:42;22.20;93.10
16321;DHT22;8269;50.990;4.494;2022-09-12T08:26:09;22.30;92.70
16321;DHT22;8269;50.990;4.494;2022-09-12T08:28:36;22.40;91.60
16321;DHT22;8269;50.990;4.494;2022-09-12T08:31:04;22.20;91.20
16321;DHT22;8269;50.990;4.494;2022-09-12T08:33:30;22.40;90.50
16321;DHT22;8269;50.990;4.494;2022-09-12T08:36:14;22.40;90.40
16321;DHT22;8269;50.990;4.494;2022-09-12T08:38:43;22.50;89.90
16321;DHT22;8269;50.990;4.494;2022-09-12T08:41:20;22.50;89.90
16321;DHT22;8269;50.990;4.494;2022-09-12T08:49:34;23.20;84.20
16321;DHT22;8269;50.990;4.494;2022-09-12T08:52:12;23.40;84.00
16321;DHT22;8269;50.990;4.494;2022-09-12T08:54:39;23.70;82.00
16321;DHT22;8269;50.990;4.494;2022-09-12T08:57:08;23.80;79.30
16321;DHT22;8269;50.990;4.494;2022-09-12T08:59:38;23.70;77.60
16321;DHT22;8269;50.990;4.494;2022-09-12T09:04:51;24.10;75.90
16321;DHT22;8269;50.990;4.494;2022-09-12T09:13:10;24.20;72.50
16321;DHT22;8269;50.990;4.494;2022-09-12T09:16:11;24.30;71.40
16321;DHT22;8269;50.990;4.494;2022-09-12T09:18:42;23.80;73.20
16321;DHT22;8269;50.990;4.494;2022-09-12T09:21:35;23.50;73.80
16321;DHT22;8269;50.990;4.494;2022-09-12T09:24:05;23.20;75.70
16321;DHT22;8269;50.990;4.494;2022-09-12T09:26:54;23.00;76.40
16321;DHT22;8269;50.990;4.494;2022-09-12T09:29:38;22.70;73.20
16321;DHT22;8269;50.990;4.494;2022-09-12T09:32:13;22.60;74.70
16321;DHT22;8269;50.990;4.494;2022-09-12T09:34:41;22.60;75.90
16321;DHT22;8269;50.990;4.494;2022-09-12T09:37:19;22.70;76.70
16321;DHT22;8269;50.990;4.494;2022-09-12T09:45:23;22.80;74.90
16321;DHT22;8269;50.990;4.494;2022-09-12T09:50:52;22.80;71.30
16321;DHT22;8269;50.990;4.494;2022-09-12T09:53:39;22.80;71.40
16321;DHT22;8269;50.990;4.494;2022-09-12T09:56:19;22.80;71.10
16321;DHT22;8269;50.990;4.494;2022-09-12T09:58:50;22.70;72.40
16321;DHT22;8269;50.990;4.494;2022-09-12T10:01:17;22.70;72.00
16321;DHT22;8269;50.990;4.494;2022-09-12T10:03:51;22.80;73.10
16321;DHT22;8269;50.990;4.494;2022-09-12T10:06:31;22.80;72.50
16321;DHT22;8269;50.990;4.494;2022-09-12T10:09:26;22.80;72.20
16321;DHT22;8269;50.990;4.494;2022-09-12T10:11:54;22.90;72.80
16321;DHT22;8269;50.990;4.494;2022-09-12T10:14:58;22.90;71.70
16321;DHT22;8269;50.990;4.494;2022-09-12T10:17:27;22.90;71.10
16321;DHT22;8269;50.990;4.494;2022-09-12T10:19:54;23.00;69.40
16321;DHT22;8269;50.990;4.494;2022-09-12T10:22:23;22.90;67.50
16321;DHT22;8269;50.990;4.494;2022-09-12T10:24:59;22.90;69.00
16321;DHT22;8269;50.990;4.494;2022-09-12T10:27:30;22.80;69.70
16321;DHT22;8269;50.990;4.494;2022-09-12T10:30:15;22.90;68.20
16321;DHT22;8269;50.990;4.494;2022-09-12T10:32:45;23.00;68.80
16321;DHT22;8269;50.990;4.494;2022-09-12T10:35:22;23.00;69.20
16321;DHT22;8269;50.990;4.494;2022-09-12T10:40:41;23.00;66.60
16321;DHT22;8269;50.990;4.494;2022-09-12T10:43:17;23.00;66.80
16321;DHT22;8269;50.990;4.494;2022-09-12T10:45:48;23.10;67.00
16321;DHT22;8269;50.990;4.494;2022-09-12T10:48:27;23.10;66.50
16321;DHT22;8269;50.990;4.494;2022-09-12T10:50:53;23.10;65.20
16321;DHT22;8269;50.990;4.494;2022-09-12T10:53:31;23.20;65.50
16321;DHT22;8269;50.990;4.494;2022-09-12T10:59:22;23.20;64.60
16321;DHT22;8269;50.990;4.494;2022-09-12T11:02:03;23.10;64.90
16321;DHT22;8269;50.990;4.494;2022-09-12T11:07:45;23.30;65.20
16321;DHT22;8269;50.990;4.494;2022-09-12T11:17:58;23.40;64.60
16321;DHT22;8269;50.990;4.494;2022-09-12T11:25:57;23.60;64.90
16321;DHT22;8269;50.990;4.494;2022-09-12T11:33:45;23.60;64.80
16321;DHT22;8269;50.990;4.494;2022-09-12T11:36:36;23.60;65.70
16321;DHT22;8269;50.990;4.494;2022-09-12T11:39:27;23.70;64.90
16321;DHT22;8269;50.990;4.494;2022-09-12T11:41:59;23.80;65.10
16321;DHT22;8269;50.990;4.494;2022-09-12T11:44:35;23.80;63.20
16321;DHT22;8269;50.990;4.494;2022-09-12T11:47:11;23.80;62.40
16321;DHT22;8269;50.990;4.494;2022-09-12T11:49:49;23.90;59.90
16321;DHT22;8269;50.990;4.494;2022-09-12T11:52:19;24.00;59.30
16321;DHT22;8269;50.990;4.494;2022-09-12T12:03:14;24.00;60.40
16321;DHT22;8269;50.990;4.494;2022-09-12T12:06:10;24.10;60.40
16321;DHT22;8269;50.990;4.494;2022-09-12T12:08:39;24.20;58.10
16321;DHT22;8269;50.990;4.494;2022-09-12T12:11:06;24.10;57.90
16321;DHT22;8269;50.990;4.494;2022-09-12T12:13:45;24.20;59.30
16321;DHT22;8269;50.990;4.494;2022-09-12T12:16:33;24.40;59.80
16321;DHT22;8269;50.990;4.494;2022-09-12T12:19:20;24.50;60.00
16321;DHT22;8269;50.990;4.494;2022-09-12T12:21:49;24.60;60.20
16321;DHT22;8269;50.990;4.494;2022-09-12T12:24:24;24.60;59.10
16321;DHT22;8269;50.990;4.494;2022-09-12T12:27:21;24.60;58.80
16321;DHT22;8269;50.990;4.494;2022-09-12T12:29:47;24.60;58.20
16321;DHT22;8269;50.990;4.494;2022-09-12T12:34:44;24.50;59.70
16321;DHT22;8269;50.990;4.494;2022-09-12T12:48:01;24.70;58.50
16321;DHT22;8269;50.990;4.494;2022-09-12T12:50:32;24.60;58.30
16321;DHT22;8269;50.990;4.494;2022-09-12T12:53:23;24.60;58.50
16321;DHT22;8269;50.990;4.494;2022-09-12T12:55:53;24.60;59.50
16321;DHT22;8269;50.990;4.494;2022-09-12T12:58:37;24.70;59.80
16321;DHT22;8269;50.990;4.494;2022-09-12T13:01:11;24.70;59.30
16321;DHT22;8269;50.990;4.494;2022-09-12T13:03:43;24.70;58.30
16321;DHT22;8269;50.990;4.494;2022-09-12T13:11:44;24.80;58.30
16321;DHT22;8269;50.990;4.494;2022-09-12T13:17:19;24.90;57.00
16321;DHT22;8269;50.990;4.494;2022-09-12T13:19:47;25.00;57.70
16321;DHT22;8269;50.990;4.494;2022-09-12T13:22:14;25.10;57.50
16321;DHT22;8269;50.990;4.494;2022-09-12T13:24:45;25.10;56.50
16321;DHT22;8269;50.990;4.494;2022-09-12T13:27:24;25.30;57.30
16321;DHT22;8269;50.990;4.494;2022-09-12T13:30:08;25.40;56.50
16321;DHT22;8269;50.990;4.494;2022-09-12T13:32:36;25.40;56.30
16321;DHT22;8269;50.990;4.494;2022-09-12T13:38:08;25.50;56.90
16321;DHT22;8269;50.990;4.494;2022-09-12T13:40:38;25.40;56.10
16321;DHT22;8269;50.990;4.494;2022-09-12T13:43:16;25.50;56.80
16321;DHT22;8269;50.990;4.494;2022-09-12T13:45:46;25.40;55.30
16321;DHT22;8269;50.990;4.494;2022-09-12T13:48:18;25.30;54.90
16321;DHT22;8269;50.990;4.494;2022-09-12T13:50:52;25.30;55.50
16321;DHT22;8269;50.990;4.494;2022-09-12T13:53:21;25.30;55.80
16321;DHT22;8269;50.990;4.494;2022-09-12T13:55:58;25.30;55.40
16321;DHT22;8269;50.990;4.494;2022-09-12T13:58:26;25.40;56.00
16321;DHT22;8269;50.990;4.494;2022-09-12T14:01:01;25.30;55.30
16321;DHT22;8269;50.990;4.494;2022-09-12T14:03:29;25.20;54.60
16321;DHT22;8269;50.990;4.494;2022-09-12T14:06:15;25.10;55.90
16321;DHT22;8269;50.990;4.494;2022-09-12T14:08:41;25.20;56.80
16321;DHT22;8269;50.990;4.494;2022-09-12T14:11:10;25.30;56.50
16321;DHT22;8269;50.990;4.494;2022-09-12T14:13:37;25.30;56.30
16321;DHT22;8269;50.990;4.494;2022-09-12T14:16:04;25.40;56.90
16321;DHT22;8269;50.990;4.494;2022-09-12T14:18:37;25.40;55.40
16321;DHT22;8269;50.990;4.494;2022-09-12T14:21:11;25.40;55.50
16321;DHT22;8269;50.990;4.494;2022-09-12T14:23:47;25.40;55.00
16321;DHT22;8269;50.990;4.494;2022-09-12T14:26:14;25.40;55.20
16321;DHT22;8269;50.990;4.494;2022-09-12T14:28:43;25.40;55.20
16321;DHT22;8269;50.990;4.494;2022-09-12T14:36:26;25.40;55.90
16321;DHT22;8269;50.990;4.494;2022-09-12T14:39:05;25.40;56.60
16321;DHT22;8269;50.990;4.494;2022-09-12T14:41:38;25.40;56.40
16321;DHT22;8269;50.990;4.494;2022-09-12T14:44:23;25.40;54.80
16321;DHT22;8269;50.990;4.494;2022-09-12T14:46:50;25.50;55.50
16321;DHT22;8269;50.990;4.494;2022-09-12T14:52:25;25.50;55.90
16321;DHT22;8269;50.990;4.494;2022-09-12T14:57:41;25.60;55.30
16321;DHT22;8269;50.990;4.494;2022-09-12T15:00:15;25.50;55.40
16321;DHT22;8269;50.990;4.494;2022-09-12T15:02:45;25.50;54.00
16321;DHT22;8269;50.990;4.494;2022-09-12T15:07:43;25.40;55.10
16321;DHT22;8269;50.990;4.494;2022-09-12T15:10:25;25.40;55.20
16321;DHT22;8269;50.990;4.494;2022-09-12T15:13:11;25.40;55.50
16321;DHT22;8269;50.990;4.494;2022-09-12T15:15:40;25.50;55.00
16321;DHT22;8269;50.990;4.494;2022-09-12T15:18:06;25.40;55.30
16321;DHT22;8269;50.990;4.494;2022-09-12T15:20:36;25.40;55.20
16321;DHT22;8269;50.990;4.494;2022-09-12T15:23:05;25.40;55.20
16321;DHT22;8269;50.990;4.494;2022-09-12T15:25:32;25.40;55.70
16321;DHT22;8269;50.990;4.494;2022-09-12T15:27:58;25.50;55.50
16321;DHT22;8269;50.990;4.494;2022-09-12T15:30:24;25.50;55.30
16321;DHT22;8269;50.990;4.494;2022-09-12T15:32:49;25.50;55.10
16321;DHT22;8269;50.990;4.494;2022-09-12T15:35:19;25.50;55.80
16321;DHT22;8269;50.990;4.494;2022-09-12T15:37:45;25.50;55.00
16321;DHT22;8269;50.990;4.494;2022-09-12T15:40:11;25.50;54.60
16321;DHT22;8269;50.990;4.494;2022-09-12T15:42:39;25.40;54.40
16321;DHT22;8269;50.990;4.494;2022-09-12T15:45:15;25.40;55.40
16321;DHT22;8269;50.990;4.494;2022-09-12T15:47:43;25.40;55.90
16321;DHT22;8269;50.990;4.494;2022-09-12T15:50:09;25.40;54.20
16321;DHT22;8269;50.990;4.494;2022-09-12T15:52:35;25.40;54.40
16321;DHT22;8269;50.990;4.494;2022-09-12T15:55:02;25.30;54.80
16321;DHT22;8269;50.990;4.494;2022-09-12T15:57:28;25.30;54.50
16321;DHT22;8269;50.990;4.494;2022-09-12T15:59:53;25.30;54.30
16321;DHT22;8269;50.990;4.494;2022-09-12T16:02:19;25.30;54.60
16321;DHT22;8269;50.990;4.494;2022-09-12T16:04:45;25.20;54.30
16321;DHT22;8269;50.990;4.494;2022-09-12T16:07:12;25.20;54.60
16321;DHT22;8269;50.990;4.494;2022-09-12T16:09:39;25.20;55.60
16321;DHT22;8269;50.990;4.494;2022-09-12T16:12:05;25.20;55.40
16321;DHT22;8269;50.990;4.494;2022-09-12T16:14:31;25.20;55.70
16321;DHT22;8269;50.990;4.494;2022-09-12T16:16:56;25.10;56.10
16321;DHT22;8269;50.990;4.494;2022-09-12T16:19:22;25.10;56.20
16321;DHT22;8269;50.990;4.494;2022-09-12T16:21:49;25.00;56.10
16321;DHT22;8269;50.990;4.494;2022-09-12T16:24:15;24.90;55.80
16321;DHT22;8269;50.990;4.494;2022-09-12T16:26:41;24.80;56.30
16321;DHT22;8269;50.990;4.494;2022-09-12T16:29:08;24.80;56.80
16321;DHT22;8269;50.990;4.494;2022-09-12T16:31:34;24.70;56.40
16321;DHT22;8269;50.990;4.494;2022-09-12T16:34:02;24.70;56.90
16321;DHT22;8269;50.990;4.494;2022-09-12T16:36:28;24.60;57.40
16321;DHT22;8269;50.990;4.494;2022-09-12T16:38:54;24.50;57.90
16321;DHT22;8269;50.990;4.494;2022-09-12T16:41:23;24.50;58.20
16321;DHT22;8269;50.990;4.494;2022-09-12T16:43:51;24.40;59.10
16321;DHT22;8269;50.990;4.494;2022-09-12T16:46:23;24.40;59.70
16321;DHT22;8269;50.990;4.494;2022-09-12T16:48:54;24.40;59.30
16321;DHT22;8269;50.990;4.494;2022-09-12T16:51:25;24.30;60.20
16321;DHT22;8269;50.990;4.494;2022-09-12T16:53:54;24.30;60.10
16321;DHT22;8269;50.990;4.494;2022-09-12T16:56:21;24.30;60.30
16321;DHT22;8269;50.990;4.494;2022-09-12T16:58:47;24.20;60.30
16321;DHT22;8269;50.990;4.494;2022-09-12T17:01:16;24.20;60.70
16321;DHT22;8269;50.990;4.494;2022-09-12T17:03:42;24.20;60.70
16321;DHT22;8269;50.990;4.494;2022-09-12T17:06:11;24.10;60.80
16321;DHT22;8269;50.990;4.494;2022-09-12T17:08:43;24.20;60.60
16321;DHT22;8269;50.990;4.494;2022-09-12T17:11:21;24.10;60.90
16321;DHT22;8269;50.990;4.494;2022-09-12T17:13:52;24.10;61.30
16321;DHT22;8269;50.990;4.494;2022-09-12T17:16:19;24.10;62.20
16321;DHT22;8269;50.990;4.494;2022-09-12T17:18:45;24.00;63.60
16321;DHT22;8269;50.990;4.494;2022-09-12T17:21:13;23.90;64.30
16321;DHT22;8269;50.990;4.494;2022-09-12T17:23:40;23.90;64.70
16321;DHT22;8269;50.990;4.494;2022-09-12T17:26:08;23.80;64.20
16321;DHT22;8269;50.990;4.494;2022-09-12T17:28:37;23.80;64.20
16321;DHT22;8269;50.990;4.494;2022-09-12T17:31:06;23.70;65.10
16321;DHT22;8269;50.990;4.494;2022-09-12T17:33:32;23.60;65.60
16321;DHT22;8269;50.990;4.494;2022-09-12T17:36:00;23.50;66.40
16321;DHT22;8269;50.990;4.494;2022-09-12T17:38:25;23.40;67.30
16321;DHT22;8269;50.990;4.494;2022-09-12T17:40:52;23.40;68.20
16321;DHT22;8269;50.990;4.494;2022-09-12T17:43:17;23.20;70.30
16321;DHT22;8269;50.990;4.494;2022-09-12T17:45:43;23.10;70.60
16321;DHT22;8269;50.990;4.494;2022-09-12T17:48:09;23.00;71.20
16321;DHT22;8269;50.990;4.494;2022-09-12T17:50:39;22.90;71.90
16321;DHT22;8269;50.990;4.494;2022-09-12T17:53:06;22.90;72.30
16321;DHT22;8269;50.990;4.494;2022-09-12T17:55:36;22.80;73.30
16321;DHT22;8269;50.990;4.494;2022-09-12T17:58:02;22.70;74.60
16321;DHT22;8269;50.990;4.494;2022-09-12T18:00:28;22.60;75.50
16321;DHT22;8269;50.990;4.494;2022-09-12T18:03:14;22.50;75.60
16321;DHT22;8269;50.990;4.494;2022-09-12T18:05:59;22.30;75.10
16321;DHT22;8269;50.990;4.494;2022-09-12T18:08:25;22.20;76.00
16321;DHT22;8269;50.990;4.494;2022-09-12T18:10:51;22.10;76.60
16321;DHT22;8269;50.990;4.494;2022-09-12T18:13:17;22.00;77.10
16321;DHT22;8269;50.990;4.494;2022-09-12T18:15:44;21.90;77.70